createdAt,value
2022-12-27T00:02:25.812Z,83.26
2022-12-27T00:04:54.360Z,83.03
2022-12-27T00:07:21.023Z,83.20
2022-12-27T00:09:47.735Z,83.35
2022-12-27T00:12:14.394Z,83.25
2022-12-27T00:14:41.325Z,83.50
2022-12-27T00:17:07.843Z,83.77
2022-12-27T00:19:34.280Z,83.61
2022-12-27T00:22:02.337Z,83.30
2022-12-27T00:24:29.030Z,83.31
2022-12-27T00:26:55.563Z,83.76
2022-12-27T00:29:21.997Z,83.49
2022-12-27T00:31:48.554Z,83.59
2022-12-27T00:34:15.119Z,83.90
2022-12-27T00:36:41.567Z,83.91
2022-12-27T00:39:08.003Z,84.49
2022-12-27T00:41:34.530Z,84.55
2022-12-27T00:44:00.961Z,84.86
2022-12-27T00:46:27.472Z,84.36
2022-12-27T00:48:53.972Z,84.48
2022-12-27T00:51:22.297Z,84.62
2022-12-27T00:53:48.893Z,84.95
2022-12-27T00:56:16.929Z,85.18
2022-12-27T00:58:43.362Z,85.15
2022-12-27T01:01:13.972Z,85.05
2022-12-27T01:03:40.558Z,85.07
2022-12-27T01:06:07.493Z,84.87
2022-12-27T01:08:33.952Z,85.18
2022-12-27T01:11:00.544Z,84.93
2022-12-27T01:13:27.154Z,84.98
2022-12-27T01:15:53.607Z,85.43
2022-12-27T01:18:20.050Z,85.34
2022-12-27T01:20:46.529Z,85.56
2022-12-27T01:23:13.157Z,85.49
2022-12-27T01:25:39.615Z,85.00
2022-12-27T01:28:06.043Z,84.66
2022-12-27T01:30:32.485Z,84.66
2022-12-27T01:32:58.960Z,84.72
2022-12-27T01:35:27.077Z,85.01
2022-12-27T01:37:53.786Z,85.18
2022-12-27T01:40:20.328Z,85.58
2022-12-27T01:42:53.007Z,85.12
2022-12-27T01:45:20.558Z,84.08
2022-12-27T01:47:46.973Z,83.87
2022-12-27T01:50:19.503Z,84.30
2022-12-27T01:52:55.114Z,83.83
2022-12-27T01:55:36.488Z,83.80
2022-12-27T01:58:11.342Z,83.74
2022-12-27T02:00:38.225Z,83.58
2022-12-27T02:03:04.881Z,84.01
2022-12-27T02:05:31.396Z,83.93
2022-12-27T02:07:57.795Z,83.87
2022-12-27T02:10:24.480Z,83.62
2022-12-27T02:12:50.908Z,83.37
2022-12-27T02:15:17.341Z,83.61
2022-12-27T02:17:43.766Z,84.17
2022-12-27T02:20:14.664Z,84.05
2022-12-27T02:23:15.368Z,84.27
2022-12-27T02:25:51.111Z,83.85
2022-12-27T02:28:33.080Z,84.27
2022-12-27T02:31:01.054Z,84.65
2022-12-27T02:33:28.256Z,84.62
2022-12-27T02:35:56.449Z,84.57
2022-12-27T02:38:23.999Z,84.63
2022-12-27T02:41:09.232Z,84.38
2022-12-27T02:43:54.407Z,83.72
2022-12-27T02:46:40.202Z,83.60
2022-12-27T02:50:04.024Z,83.40
2022-12-27T02:52:52.050Z,83.53
2022-12-27T02:55:21.046Z,83.47
2022-12-27T02:58:06.234Z,83.47
2022-12-27T03:00:53.929Z,83.29
2022-12-27T03:03:38.345Z,82.91
2022-12-27T03:06:40.423Z,82.54
2022-12-27T03:09:10.052Z,83.00
2022-12-27T03:12:00.627Z,82.57
2022-12-27T03:14:47.362Z,82.82
2022-12-27T03:17:14.951Z,82.92
2022-12-27T03:20:09.023Z,83.55
2022-12-27T03:22:54.117Z,83.77
2022-12-27T03:25:29.790Z,83.72
2022-12-27T03:28:16.526Z,83.72
2022-12-27T03:31:01.618Z,83.64
2022-12-27T03:33:28.161Z,83.52
2022-12-27T03:36:23.872Z,83.19
2022-12-27T03:39:13.587Z,83.04
2022-12-27T03:41:59.034Z,82.78
2022-12-27T03:44:25.839Z,83.26
2022-12-27T03:46:58.987Z,83.15
2022-12-27T03:49:25.408Z,83.28
2022-12-27T03:51:51.828Z,83.14
2022-12-27T03:54:31.013Z,83.23
2022-12-27T03:56:58.118Z,82.92
2022-12-27T03:59:24.532Z,82.37
2022-12-27T04:01:51.176Z,82.68
2022-12-27T04:04:17.746Z,82.27
2022-12-27T04:06:44.221Z,82.51
2022-12-27T04:09:32.409Z,82.39
2022-12-27T04:12:17.854Z,82.78
2022-12-27T04:15:02.968Z,82.47
2022-12-27T04:17:48.361Z,82.53
2022-12-27T04:20:33.340Z,82.35
2022-12-27T04:23:18.508Z,81.03
2022-12-27T04:26:03.715Z,80.67
2022-12-27T04:28:48.743Z,80.02
2022-12-27T04:31:33.878Z,79.66
2022-12-27T04:34:18.824Z,79.77
2022-12-27T04:36:45.337Z,80.08
2022-12-27T04:39:11.890Z,79.95
2022-12-27T04:41:57.757Z,79.95
2022-12-27T04:44:42.863Z,79.68
2022-12-27T04:47:30.595Z,79.75
2022-12-27T04:50:15.749Z,80.51
2022-12-27T04:53:00.975Z,79.86
2022-12-27T04:55:28.298Z,80.24
2022-12-27T04:57:55.052Z,80.11
2022-12-27T05:00:40.782Z,79.89
2022-12-27T05:03:08.559Z,79.95
2022-12-27T05:05:35.408Z,79.97
2022-12-27T05:08:20.514Z,79.57
2022-12-27T05:11:05.713Z,80.04
2022-12-27T05:13:50.872Z,80.47
2022-12-27T05:16:17.337Z,80.18
2022-12-27T05:18:43.792Z,80.63
2022-12-27T05:21:10.390Z,80.24
2022-12-27T05:23:58.833Z,80.01
2022-12-27T05:26:29.024Z,76.34
2022-12-27T05:28:56.164Z,76.11
2022-12-27T05:31:22.867Z,76.76
2022-12-27T05:33:49.658Z,75.45
2022-12-27T05:36:16.132Z,76.52
2022-12-27T05:38:42.609Z,77.23
2022-12-27T05:41:09.097Z,77.28
2022-12-27T05:43:35.647Z,76.84
2022-12-27T05:46:05.987Z,76.72
2022-12-27T05:48:32.534Z,76.94
2022-12-27T05:50:59.169Z,77.26
2022-12-27T05:53:25.611Z,76.73
2022-12-27T05:55:55.760Z,76.08
2022-12-27T05:58:22.521Z,76.84
2022-12-27T06:00:49.040Z,77.08
2022-12-27T06:03:15.609Z,77.12
2022-12-27T06:05:42.132Z,76.94
2022-12-27T06:08:08.960Z,76.72
2022-12-27T06:10:35.615Z,76.25
2022-12-27T06:13:02.133Z,75.17
2022-12-27T06:15:28.821Z,75.61
2022-12-27T06:17:55.427Z,75.70
2022-12-27T06:20:21.904Z,74.95
2022-12-27T06:22:48.335Z,75.57
2022-12-27T06:25:14.776Z,76.12
2022-12-27T06:27:41.749Z,76.23
2022-12-27T06:30:08.583Z,76.18
2022-12-27T06:32:35.288Z,76.65
2022-12-27T06:35:01.820Z,76.41
2022-12-27T06:37:29.847Z,77.26
2022-12-27T06:39:56.355Z,77.45
2022-12-27T06:42:23.150Z,76.79
2022-12-27T06:44:49.861Z,77.97
2022-12-27T06:47:16.596Z,77.91
2022-12-27T06:49:43.015Z,78.53
2022-12-27T06:52:09.468Z,78.57
2022-12-27T06:54:35.942Z,78.34
2022-12-27T06:57:02.353Z,78.63
2022-12-27T06:59:29.038Z,78.44
2022-12-27T07:01:55.740Z,78.62
2022-12-27T07:04:22.395Z,78.65
2022-12-27T07:06:48.865Z,78.96
2022-12-27T07:09:15.407Z,78.66
2022-12-27T07:11:41.845Z,77.91
2022-12-27T07:14:08.738Z,77.69
2022-12-27T07:16:35.252Z,77.93
2022-12-27T07:19:01.779Z,77.57
2022-12-27T07:21:29.232Z,77.76
2022-12-27T07:23:55.733Z,77.07
2022-12-27T07:26:23.213Z,77.15
2022-12-27T07:28:49.693Z,76.34
2022-12-27T07:31:17.186Z,76.62
2022-12-27T07:33:43.841Z,76.84
2022-12-27T07:36:12.568Z,76.39
2022-12-27T07:38:39.079Z,76.68
2022-12-27T07:41:05.823Z,75.72
2022-12-27T07:43:33.478Z,75.59
2022-12-27T07:46:10.195Z,75.90
2022-12-27T07:48:36.859Z,75.14
2022-12-27T07:51:03.449Z,75.06
2022-12-27T07:53:30.085Z,74.98
2022-12-27T07:55:56.786Z,75.20
2022-12-27T07:58:24.473Z,74.50
2022-12-27T08:00:51.377Z,74.66
2022-12-27T08:03:17.925Z,73.58
2022-12-27T08:05:47.864Z,73.04
2022-12-27T08:08:15.269Z,73.03
2022-12-27T08:10:41.779Z,73.38
2022-12-27T08:13:08.302Z,73.47
2022-12-27T08:15:34.829Z,72.08
2022-12-27T08:18:01.482Z,72.25
2022-12-27T08:20:28.953Z,72.57
2022-12-27T08:22:55.478Z,72.86
2022-12-27T08:25:22.013Z,72.58
2022-12-27T08:27:48.476Z,73.55
2022-12-27T08:30:14.944Z,72.26
2022-12-27T08:32:41.395Z,71.97
2022-12-27T08:35:41.914Z,71.60
2022-12-27T08:37:54.460Z,71.56
2022-12-27T08:40:21.172Z,71.17
2022-12-27T08:42:47.682Z,71.02
2022-12-27T08:45:14.284Z,71.02
2022-12-27T08:47:40.740Z,69.05
2022-12-27T08:50:07.527Z,68.37
2022-12-27T08:52:34.199Z,67.16
2022-12-27T08:55:00.804Z,65.00
2022-12-27T08:57:27.234Z,62.68
2022-12-27T08:59:54.670Z,62.79
2022-12-27T09:02:21.194Z,62.79
2022-12-27T09:04:47.778Z,63.05
2022-12-27T09:07:14.286Z,63.28
2022-12-27T09:09:40.766Z,64.57
2022-12-27T09:12:09.218Z,64.61
2022-12-27T09:14:36.162Z,65.49
2022-12-27T09:17:02.595Z,65.85
2022-12-27T09:19:29.189Z,66.64
2022-12-27T09:21:55.668Z,67.17
2022-12-27T09:24:22.156Z,67.73
2022-12-27T09:26:48.617Z,67.67
2022-12-27T09:29:15.147Z,67.59
2022-12-27T09:31:41.582Z,67.10
2022-12-27T09:34:09.488Z,68.64
2022-12-27T09:36:37.370Z,67.73
2022-12-27T09:39:03.939Z,68.99
2022-12-27T09:42:45.906Z,67.98
2022-12-27T09:44:35.227Z,68.49
2022-12-27T09:47:08.712Z,67.84
2022-12-27T09:49:38.988Z,68.41
2022-12-27T09:52:25.816Z,69.25
2022-12-27T09:54:52.257Z,69.04
2022-12-27T09:57:21.475Z,69.25
2022-12-27T09:59:49.098Z,69.33
2022-12-27T10:02:20.333Z,69.54
2022-12-27T10:05:18.401Z,69.44
2022-12-27T10:07:33.295Z,68.32
2022-12-27T10:10:05.324Z,68.48
2022-12-27T10:12:50.654Z,67.85
2022-12-27T10:15:28.500Z,67.41
2022-12-27T10:18:11.777Z,68.23
2022-12-27T10:20:55.425Z,67.18
2022-12-27T10:23:23.811Z,66.81
2022-12-27T10:25:52.049Z,65.67
2022-12-27T10:28:23.032Z,66.62
2022-12-27T10:30:49.520Z,67.95
2022-12-27T10:33:28.806Z,66.80
2022-12-27T10:35:55.301Z,65.38
2022-12-27T10:38:22.207Z,65.75
2022-12-27T10:40:54.207Z,66.49
2022-12-27T10:43:25.429Z,65.97
2022-12-27T10:45:51.910Z,65.79
2022-12-27T10:48:22.479Z,65.28
2022-12-27T10:50:55.858Z,65.76
2022-12-27T10:53:32.988Z,66.16
2022-12-27T10:56:08.738Z,67.44
2022-12-27T10:58:35.164Z,66.31
2022-12-27T11:01:01.615Z,67.29
2022-12-27T11:03:30.808Z,67.14
2022-12-27T11:06:04.431Z,66.81
2022-12-27T11:08:30.992Z,66.80
2022-12-27T11:11:16.278Z,66.82
2022-12-27T11:13:42.765Z,67.02
2022-12-27T11:16:17.080Z,65.80
2022-12-27T11:18:45.332Z,64.97
2022-12-27T11:21:21.190Z,65.12
2022-12-27T11:23:53.568Z,64.14
2022-12-27T11:26:21.392Z,62.84
2022-12-27T11:28:50.961Z,63.88
2022-12-27T11:31:18.215Z,62.41
2022-12-27T11:33:48.732Z,61.77
2022-12-27T11:36:15.741Z,61.04
2022-12-27T11:38:43.110Z,61.02
2022-12-27T11:41:11.448Z,61.07
2022-12-27T11:43:50.100Z,60.13
2022-12-27T11:46:26.701Z,59.58
2022-12-27T11:48:57.472Z,60.42
2022-12-27T11:51:23.940Z,62.08
2022-12-27T11:54:00.219Z,62.69
2022-12-27T11:56:27.143Z,62.12
2022-12-27T11:59:12.491Z,63.57
2022-12-27T12:01:42.019Z,63.28
2022-12-27T12:04:20.764Z,62.69
2022-12-27T12:06:51.007Z,63.18
2022-12-27T12:09:20.560Z,63.91
2022-12-27T12:11:54.664Z,63.64
2022-12-27T12:14:27.699Z,62.99
2022-12-27T12:16:57.412Z,63.10
2022-12-27T12:19:36.419Z,64.70
2022-12-27T12:22:12.917Z,64.62
2022-12-27T12:24:41.701Z,65.19
2022-12-27T12:27:26.474Z,64.80
2022-12-27T12:30:11.702Z,64.78
2022-12-27T12:32:38.183Z,65.52
2022-12-27T12:35:23.413Z,65.66
2022-12-27T12:37:49.917Z,65.37
2022-12-27T12:40:22.537Z,65.24
2022-12-27T12:43:07.838Z,65.58
2022-12-27T12:45:34.484Z,65.83
2022-12-27T12:48:01.025Z,64.06
2022-12-27T12:50:46.066Z,63.35
2022-12-27T12:53:21.849Z,62.85
2022-12-27T12:55:58.859Z,63.68
2022-12-27T12:58:37.583Z,63.47
2022-12-27T13:01:24.457Z,61.18
2022-12-27T13:03:50.967Z,60.07
2022-12-27T13:06:19.972Z,57.99
2022-12-27T13:08:55.435Z,58.00
2022-12-27T13:11:25.050Z,56.34
2022-12-27T13:13:52.085Z,56.11
2022-12-27T13:16:18.639Z,55.95
2022-12-27T13:18:51.031Z,56.16
2022-12-27T13:21:32.832Z,57.01
2022-12-27T13:24:02.434Z,55.98
2022-12-27T13:26:48.802Z,55.38
2022-12-27T13:29:21.329Z,56.21
2022-12-27T13:31:58.136Z,56.42
2022-12-27T13:34:27.964Z,56.69
2022-12-27T13:37:12.785Z,57.27
2022-12-27T13:39:57.675Z,57.71
2022-12-27T13:42:24.138Z,58.95
2022-12-27T13:44:55.012Z,59.28
2022-12-27T13:47:27.717Z,58.38
2022-12-27T13:50:00.185Z,58.33
2022-12-27T13:52:35.757Z,57.55
2022-12-27T13:55:23.132Z,57.01
2022-12-27T13:57:49.658Z,57.42
2022-12-27T14:00:17.384Z,57.46
2022-12-27T14:02:51.413Z,57.85
2022-12-27T14:05:27.689Z,58.59
2022-12-27T14:08:23.155Z,59.19
2022-12-27T14:10:53.875Z,58.79
2022-12-27T14:13:38.904Z,59.86
2022-12-27T14:16:15.972Z,60.01
2022-12-27T14:19:01.418Z,60.06
2022-12-27T14:21:46.552Z,60.55
2022-12-27T14:24:31.407Z,59.93
2022-12-27T14:27:07.011Z,60.07
2022-12-27T14:29:52.350Z,60.54
2022-12-27T14:32:27.905Z,60.86
2022-12-27T14:35:13.231Z,60.89
2022-12-27T14:37:58.586Z,61.18
2022-12-27T14:40:34.410Z,60.60
2022-12-27T14:43:13.739Z,60.76
2022-12-27T14:45:40.230Z,61.54
2022-12-27T14:48:19.003Z,61.90
2022-12-27T14:50:49.417Z,61.47
2022-12-27T14:53:21.981Z,61.03
2022-12-27T14:56:07.202Z,61.17
2022-12-27T14:58:41.238Z,61.69
2022-12-27T15:01:11.035Z,61.39
2022-12-27T15:03:49.572Z,61.38
2022-12-27T15:06:16.113Z,62.21
2022-12-27T15:08:42.783Z,62.76
2022-12-27T15:11:18.324Z,62.35
2022-12-27T15:16:46.830Z,63.24
2022-12-27T15:19:20.662Z,63.91
2022-12-27T15:22:16.817Z,63.98
2022-12-27T15:24:50.329Z,64.08
2022-12-27T15:27:32.314Z,64.44
2022-12-27T15:30:08.116Z,64.51
2022-12-27T15:32:37.775Z,64.87
2022-12-27T15:35:24.032Z,64.51
2022-12-27T15:37:51.095Z,64.73
2022-12-27T15:40:24.627Z,64.48
2022-12-27T15:42:56.241Z,65.35
2022-12-27T15:45:42.617Z,65.66
2022-12-27T15:48:12.084Z,65.83
2022-12-27T15:50:38.570Z,65.60
2022-12-27T15:53:09.046Z,66.12
2022-12-27T15:55:54.473Z,66.23
2022-12-27T15:58:23.342Z,66.56
2022-12-27T16:01:26.157Z,66.78
2022-12-27T16:07:32.701Z,67.02
2022-12-27T16:09:59.448Z,67.16
2022-12-27T16:12:38.600Z,67.03
2022-12-27T16:15:23.882Z,67.55
2022-12-27T16:17:56.249Z,67.74
2022-12-27T16:20:23.579Z,68.01
2022-12-27T16:23:16.508Z,68.16
2022-12-27T16:25:42.920Z,67.96
2022-12-27T16:28:09.315Z,67.71
2022-12-27T16:30:35.791Z,67.72
2022-12-27T16:33:03.587Z,67.81
2022-12-27T16:35:30.189Z,67.94
2022-12-27T16:37:56.714Z,67.57
2022-12-27T16:40:24.501Z,67.69
2022-12-27T16:42:54.065Z,67.29
2022-12-27T16:45:23.648Z,67.35
2022-12-27T16:47:56.610Z,67.16
2022-12-27T16:50:25.837Z,67.68
2022-12-27T16:53:06.371Z,67.98
2022-12-27T16:55:52.666Z,68.05
2022-12-27T16:58:31.321Z,68.19
2022-12-27T17:00:58.315Z,68.32
2022-12-27T17:03:32.145Z,68.37
2022-12-27T17:06:30.525Z,68.21
2022-12-27T17:08:46.018Z,67.88
2022-12-27T17:11:18.529Z,68.22
2022-12-27T17:13:53.010Z,68.32
2022-12-27T17:16:23.055Z,68.09
2022-12-27T17:18:52.042Z,68.08
2022-12-27T17:21:30.912Z,68.52
2022-12-27T17:23:58.157Z,68.45
2022-12-27T17:26:27.686Z,68.49
2022-12-27T17:28:57.852Z,68.75
2022-12-27T17:31:26.443Z,68.56
2022-12-27T17:33:56.314Z,68.78
2022-12-27T17:36:25.994Z,68.77
2022-12-27T17:38:52.484Z,68.92
2022-12-27T17:41:45.016Z,69.09
2022-12-27T17:44:37.753Z,68.98
2022-12-27T17:47:22.824Z,69.43
2022-12-27T17:49:49.299Z,69.32
2022-12-27T17:52:37.910Z,69.31
2022-12-27T17:55:41.880Z,69.07
2022-12-27T17:58:09.507Z,69.12
2022-12-27T18:00:37.277Z,68.88
2022-12-27T18:03:07.105Z,68.80
2022-12-27T18:05:34.178Z,68.84
2022-12-27T18:08:04.667Z,68.83
2022-12-27T18:10:31.810Z,69.22
2022-12-27T18:12:59.257Z,69.11
2022-12-27T18:15:26.112Z,69.24
2022-12-27T18:17:56.260Z,69.48
2022-12-27T18:20:25.753Z,69.73
2022-12-27T18:23:12.870Z,69.85
2022-12-27T18:25:45.592Z,69.89
2022-12-27T18:28:18.990Z,69.70
2022-12-27T18:30:47.355Z,69.98
2022-12-27T18:33:14.211Z,70.02
2022-12-27T18:35:43.342Z,70.48
2022-12-27T18:38:09.776Z,70.85
2022-12-27T18:40:36.295Z,71.44
2022-12-27T18:43:02.777Z,72.07
2022-12-27T18:45:30.158Z,72.32
2022-12-27T18:47:57.115Z,71.87
2022-12-27T18:50:24.565Z,71.81
2022-12-27T18:53:04.490Z,71.52
2022-12-27T18:55:32.200Z,71.32
2022-12-27T18:58:02.374Z,71.46
2022-12-27T19:00:29.394Z,71.39
2022-12-27T19:02:56.076Z,71.53
2022-12-27T19:05:23.971Z,71.35
2022-12-27T19:07:57.684Z,71.54
2022-12-27T19:10:24.847Z,71.58
2022-12-27T19:12:52.295Z,71.42
2022-12-27T19:15:28.096Z,71.50
2022-12-27T19:18:01.885Z,71.82
2022-12-27T19:20:29.717Z,71.68
2022-12-27T19:22:57.349Z,71.60
2022-12-27T19:25:27.885Z,71.52
2022-12-27T19:27:58.250Z,71.55
2022-12-27T19:30:43.576Z,71.52
2022-12-27T19:33:14.617Z,71.23
2022-12-27T19:35:41.502Z,70.98
2022-12-27T19:38:11.055Z,71.59
2022-12-27T19:40:39.132Z,71.67
2022-12-27T19:43:05.659Z,71.64
2022-12-27T19:45:32.316Z,71.66
2022-12-27T19:47:58.795Z,71.91
2022-12-27T19:50:25.264Z,71.97
2022-12-27T19:52:52.375Z,72.11
2022-12-27T19:55:21.549Z,71.68
2022-12-27T19:57:48.252Z,71.63
2022-12-27T20:00:18.067Z,71.60
2022-12-27T20:02:44.860Z,71.72
2022-12-27T20:05:13.000Z,71.76
2022-12-27T20:07:39.523Z,72.02
2022-12-27T20:10:06.431Z,71.68
2022-12-27T20:12:33.096Z,71.83
2022-12-27T20:14:59.596Z,71.60
2022-12-27T20:17:26.278Z,71.80
2022-12-27T20:19:52.735Z,71.51
2022-12-27T20:22:19.315Z,71.62
2022-12-27T20:24:47.339Z,71.66
2022-12-27T20:27:13.811Z,71.65
2022-12-27T20:29:40.402Z,71.56
2022-12-27T20:32:07.014Z,71.55
2022-12-27T20:34:33.560Z,71.68
2022-12-27T20:37:00.605Z,71.32
2022-12-27T20:39:27.184Z,71.56
2022-12-27T20:41:54.048Z,71.36
2022-12-27T20:44:20.955Z,71.20
2022-12-27T20:46:50.796Z,71.28
2022-12-27T20:49:17.658Z,71.22
2022-12-27T20:51:45.845Z,71.01
2022-12-27T20:54:13.428Z,71.52
2022-12-27T20:56:39.995Z,71.93
2022-12-27T20:59:07.204Z,72.22
2022-12-27T21:01:34.111Z,72.36
2022-12-27T21:04:01.078Z,72.44
2022-12-27T21:06:28.254Z,72.53
2022-12-27T21:08:57.729Z,72.60
2022-12-27T21:11:31.603Z,72.77
2022-12-27T21:14:30.021Z,73.21
2022-12-27T21:16:57.302Z,73.37
2022-12-27T21:19:23.907Z,73.28
2022-12-27T21:21:50.541Z,73.95
2022-12-27T21:24:17.073Z,73.79
2022-12-27T21:26:43.616Z,73.50
2022-12-27T21:29:10.292Z,73.97
2022-12-27T21:31:36.965Z,73.78
2022-12-27T21:34:03.521Z,73.85
2022-12-27T21:36:31.078Z,73.57
2022-12-27T21:38:57.675Z,73.83
2022-12-27T21:41:25.033Z,73.87
2022-12-27T21:43:51.938Z,74.10
2022-12-27T21:46:34.689Z,74.48
2022-12-27T21:49:02.217Z,74.87
2022-12-27T21:51:28.975Z,75.11
2022-12-27T21:53:55.507Z,75.60
2022-12-27T21:56:22.126Z,74.86
2022-12-27T21:58:48.626Z,75.08
2022-12-27T22:01:16.032Z,75.24
2022-12-27T22:03:43.599Z,75.29
2022-12-27T22:06:14.041Z,75.23
2022-12-27T22:08:41.043Z,75.13
2022-12-27T22:11:07.780Z,75.36
2022-12-27T22:13:35.203Z,75.35
2022-12-27T22:16:02.359Z,75.09
2022-12-27T22:18:35.415Z,75.25
2022-12-27T22:21:02.852Z,75.17
2022-12-27T22:23:32.805Z,75.34
2022-12-27T22:25:59.280Z,75.36
2022-12-27T22:28:26.076Z,75.40
2022-12-27T22:30:52.631Z,75.49
2022-12-27T22:33:19.172Z,74.92
2022-12-27T22:35:45.627Z,75.12
2022-12-27T22:38:12.432Z,74.85
2022-12-27T22:40:45.840Z,74.65
2022-12-27T22:43:13.296Z,75.02
2022-12-27T22:45:45.470Z,74.94
2022-12-27T22:48:14.377Z,75.60
2022-12-27T22:50:40.981Z,74.88
2022-12-27T22:53:07.710Z,75.16
2022-12-27T22:55:34.314Z,75.39
2022-12-27T22:58:00.776Z,75.46
2022-12-27T23:00:27.344Z,75.48
2022-12-27T23:02:56.915Z,75.59
2022-12-27T23:05:23.473Z,75.57
2022-12-27T23:08:05.145Z,75.46
2022-12-27T23:10:33.437Z,75.80
2022-12-27T23:12:59.942Z,75.55
2022-12-27T23:15:26.423Z,75.46
2022-12-27T23:17:53.115Z,75.48
2022-12-27T23:20:19.741Z,75.74
2022-12-27T23:22:46.209Z,75.23
2022-12-27T23:25:12.700Z,75.71
2022-12-27T23:27:39.246Z,75.31
2022-12-27T23:30:06.096Z,75.89
2022-12-27T23:32:32.599Z,75.43
2022-12-27T23:34:59.184Z,75.47
2022-12-27T23:37:25.625Z,76.04
2022-12-27T23:39:52.355Z,75.99
2022-12-27T23:42:18.862Z,76.11
2022-12-27T23:44:54.991Z,76.16
2022-12-27T23:47:21.710Z,75.41
2022-12-27T23:49:48.426Z,75.46
2022-12-27T23:52:15.018Z,75.19
2022-12-27T23:54:41.939Z,75.95
2022-12-27T23:57:20.141Z,75.54
2022-12-27T23:59:47.487Z,75.46
